createdAt,value
2018-04-22T00:00:01.514Z,10.70
2018-04-22T00:02:29.060Z,10.68
2018-04-22T00:04:56.651Z,10.66
2018-04-22T00:07:24.237Z,10.68
2018-04-22T00:09:51.787Z,10.63
2018-04-22T00:12:19.323Z,10.59
2018-04-22T00:14:47.004Z,10.55
2018-04-22T00:17:14.601Z,10.53
2018-04-22T00:19:42.160Z,10.50
2018-04-22T00:22:09.888Z,10.47
2018-04-22T00:24:37.420Z,10.47
2018-04-22T00:27:04.956Z,10.47
2018-04-22T00:29:32.531Z,10.48
2018-04-22T00:32:00.069Z,10.45
2018-04-22T00:34:27.619Z,10.43
2018-04-22T00:36:55.332Z,10.40
2018-04-22T00:39:22.858Z,10.37
2018-04-22T00:41:50.413Z,10.36
2018-04-22T00:44:18.143Z,10.40
2018-04-22T00:46:45.681Z,10.39
2018-04-22T00:49:13.267Z,10.39
2018-04-22T00:51:40.921Z,10.36
2018-04-22T00:54:20.204Z,10.33
2018-04-22T00:56:47.961Z,10.31
2018-04-22T00:59:15.499Z,10.35
2018-04-22T01:01:43.035Z,10.35
2018-04-22T01:04:10.606Z,10.30
2018-04-22T01:06:38.155Z,10.27
2018-04-22T01:09:06.652Z,10.23
2018-04-22T01:11:34.501Z,10.21
2018-04-22T01:14:02.054Z,10.20
2018-04-22T01:16:29.607Z,10.19
2018-04-22T01:18:57.179Z,10.13
2018-04-22T01:21:24.719Z,10.10
2018-04-22T01:23:52.263Z,10.06
2018-04-22T01:26:19.833Z,10.04
2018-04-22T01:28:47.377Z,10.00
2018-04-22T01:31:14.938Z,9.97
2018-04-22T01:33:42.746Z,9.92
2018-04-22T01:36:10.292Z,9.92
2018-04-22T01:38:37.833Z,9.89
2018-04-22T01:41:05.372Z,9.88
2018-04-22T01:43:32.901Z,9.86
2018-04-22T01:46:00.692Z,9.89
2018-04-22T01:48:28.237Z,9.85
2018-04-22T01:50:55.787Z,9.81
2018-04-22T01:53:23.347Z,9.78
2018-04-22T01:55:50.881Z,9.75
2018-04-22T01:58:18.935Z,9.73
2018-04-22T02:00:46.601Z,9.70
2018-04-22T02:03:14.135Z,9.66
2018-04-22T02:05:41.663Z,9.61
2018-04-22T02:08:09.626Z,9.59
2018-04-22T02:10:37.160Z,9.55
2018-04-22T02:13:04.695Z,9.53
2018-04-22T02:15:32.288Z,9.52
2018-04-22T02:17:59.812Z,9.50
2018-04-22T02:20:27.335Z,9.48
2018-04-22T02:22:55.042Z,9.47
2018-04-22T02:25:22.572Z,9.43
2018-04-22T02:27:50.110Z,9.42
2018-04-22T02:30:17.686Z,9.40
2018-04-22T02:32:45.223Z,9.41
2018-04-22T02:35:12.766Z,9.38
2018-04-22T02:37:40.339Z,9.35
2018-04-22T02:40:07.876Z,9.37
2018-04-22T02:42:35.407Z,9.31
2018-04-22T02:45:02.979Z,9.28
2018-04-22T02:47:30.508Z,9.26
2018-04-22T02:49:58.050Z,9.22
2018-04-22T02:52:25.735Z,9.18
2018-04-22T02:54:53.258Z,9.15
2018-04-22T02:57:20.790Z,9.16
2018-04-22T02:59:49.331Z,9.13
2018-04-22T03:02:16.866Z,9.11
2018-04-22T03:04:44.401Z,9.07
2018-04-22T03:07:12.119Z,9.04
2018-04-22T03:09:39.657Z,8.98
2018-04-22T03:12:07.191Z,8.98
2018-04-22T03:14:34.787Z,8.98
2018-04-22T03:17:02.329Z,8.97
2018-04-22T03:19:29.872Z,8.90
2018-04-22T03:21:57.444Z,8.92
2018-04-22T03:24:24.978Z,8.92
2018-04-22T03:26:52.517Z,8.89
2018-04-22T03:29:20.068Z,8.90
2018-04-22T03:31:47.595Z,8.88
2018-04-22T03:34:15.128Z,8.87
2018-04-22T03:36:42.886Z,8.90
2018-04-22T03:39:10.418Z,8.92
2018-04-22T03:41:37.952Z,8.99
2018-04-22T03:44:05.508Z,9.36
2018-04-22T03:46:33.051Z,10.05
2018-04-22T03:49:00.583Z,11.00
2018-04-22T03:51:28.443Z,12.09
2018-04-22T03:53:55.980Z,13.30
2018-04-22T03:56:23.519Z,14.57
2018-04-22T03:58:51.092Z,15.91
2018-04-22T04:01:18.645Z,17.13
2018-04-22T04:03:46.190Z,18.41
2018-04-22T04:06:14.061Z,19.47
2018-04-22T04:08:41.601Z,20.29
2018-04-22T04:11:09.185Z,21.52
2018-04-22T04:13:36.902Z,22.63
2018-04-22T04:16:04.454Z,23.65
2018-04-22T04:21:51.208Z,25.48
2018-04-22T04:24:40.052Z,26.17
2018-04-22T04:27:23.255Z,26.68
2018-04-22T04:29:50.991Z,27.50
2018-04-22T04:32:18.598Z,27.18
2018-04-22T04:34:46.144Z,27.65
2018-04-22T04:37:14.668Z,28.17
2018-04-22T04:39:42.237Z,29.20
2018-04-22T04:42:09.785Z,29.42
2018-04-22T04:44:37.391Z,30.64
2018-04-22T04:47:04.939Z,30.58
2018-04-22T04:49:32.480Z,31.51
2018-04-22T04:52:00.150Z,32.14
2018-04-22T04:54:27.707Z,32.44
2018-04-22T04:56:55.262Z,32.70
2018-04-22T04:59:22.871Z,33.69
2018-04-22T05:01:50.423Z,33.13
2018-04-22T05:04:17.960Z,33.47
2018-04-22T05:06:45.552Z,33.82
2018-04-22T05:09:13.100Z,33.85
2018-04-22T05:11:40.631Z,34.50
2018-04-22T05:14:08.292Z,34.02
2018-04-22T05:16:35.880Z,34.70
2018-04-22T05:19:03.440Z,35.50
2018-04-22T05:21:31.130Z,35.47
2018-04-22T05:23:58.673Z,35.10
2018-04-22T05:26:26.241Z,35.27
2018-04-22T05:28:53.847Z,34.15
2018-04-22T05:31:21.396Z,33.30
2018-04-22T05:33:48.944Z,33.22
2018-04-22T05:36:16.682Z,31.96
2018-04-22T05:38:44.244Z,30.45
2018-04-22T05:41:11.783Z,30.01
2018-04-22T05:43:39.353Z,29.36
2018-04-22T05:46:06.917Z,28.51
2018-04-22T05:48:34.471Z,27.47
2018-04-22T05:51:02.151Z,26.53
2018-04-22T05:53:29.756Z,25.95
2018-04-22T05:55:57.307Z,25.86
2018-04-22T05:58:25.160Z,25.62
2018-04-22T06:00:52.723Z,25.36
2018-04-22T06:03:20.274Z,25.28
2018-04-22T06:05:48.014Z,24.83
2018-04-22T06:08:15.558Z,24.83
2018-04-22T06:10:43.099Z,24.24
2018-04-22T06:13:10.964Z,24.36
2018-04-22T06:15:38.508Z,24.56
2018-04-22T06:18:06.079Z,24.06
2018-04-22T06:20:33.802Z,23.74
2018-04-22T06:23:01.353Z,23.81
2018-04-22T06:25:28.914Z,23.01
2018-04-22T06:27:56.627Z,22.51
2018-04-22T06:30:24.175Z,22.80
2018-04-22T06:32:51.720Z,23.03
2018-04-22T06:35:19.409Z,23.39
2018-04-22T06:37:46.988Z,23.36
2018-04-22T06:40:14.588Z,23.16
2018-04-22T06:42:42.144Z,23.48
2018-04-22T06:45:09.680Z,23.53
2018-04-22T06:47:37.576Z,23.64
2018-04-22T06:50:05.137Z,24.11
2018-04-22T06:52:32.688Z,23.39
2018-04-22T06:55:00.576Z,23.33
2018-04-22T06:57:28.111Z,23.01
2018-04-22T06:59:55.660Z,22.69
2018-04-22T07:02:23.245Z,22.50
2018-04-22T07:04:50.792Z,23.05
2018-04-22T07:07:18.339Z,22.74
2018-04-22T07:09:45.953Z,23.16
2018-04-22T07:12:13.515Z,22.69
2018-04-22T07:14:41.079Z,22.69
2018-04-22T07:17:09.084Z,23.35
2018-04-22T07:19:36.637Z,23.72
2018-04-22T07:22:04.187Z,23.68
2018-04-22T07:24:31.776Z,24.05
2018-04-22T07:26:59.333Z,23.87
2018-04-22T07:29:26.896Z,23.66
2018-04-22T07:31:54.656Z,23.73
2018-04-22T07:34:22.244Z,23.71
2018-04-22T07:36:49.791Z,23.91
2018-04-22T07:39:17.482Z,24.19
2018-04-22T07:41:45.048Z,24.40
2018-04-22T07:44:12.591Z,23.55
2018-04-22T07:46:40.405Z,23.24
2018-04-22T07:49:07.969Z,23.59
2018-04-22T07:51:35.510Z,23.56
2018-04-22T07:54:03.205Z,23.55
2018-04-22T07:56:30.765Z,23.55
2018-04-22T07:58:58.310Z,23.45
2018-04-22T08:01:26.024Z,23.14
2018-04-22T08:03:53.567Z,22.79
2018-04-22T08:06:21.123Z,23.09
2018-04-22T08:08:48.704Z,23.24
2018-04-22T08:11:16.239Z,23.46
2018-04-22T08:13:43.790Z,23.64
2018-04-22T08:16:11.648Z,23.70
2018-04-22T08:18:39.193Z,23.89
2018-04-22T08:21:07.488Z,23.79
2018-04-22T08:23:35.055Z,23.77
2018-04-22T08:26:02.629Z,23.76
2018-04-22T08:28:30.242Z,23.15
2018-04-22T08:30:57.930Z,23.32
2018-04-22T08:33:25.472Z,23.69
2018-04-22T08:35:53.015Z,23.99
2018-04-22T08:38:20.652Z,24.25
2018-04-22T08:40:48.221Z,24.36
2018-04-22T08:43:15.774Z,24.03
2018-04-22T08:45:43.459Z,24.05
2018-04-22T08:48:11.012Z,24.24
2018-04-22T08:50:38.584Z,24.27
2018-04-22T08:53:06.149Z,24.39
2018-04-22T08:55:33.719Z,24.55
2018-04-22T08:58:01.256Z,24.70
2018-04-22T09:00:29.006Z,24.47
2018-04-22T09:02:56.565Z,24.26
2018-04-22T09:05:24.173Z,24.37
2018-04-22T09:07:51.776Z,24.63
2018-04-22T09:10:19.336Z,24.81
2018-04-22T09:12:46.870Z,24.68
2018-04-22T09:15:14.433Z,24.75
2018-04-22T09:17:42.000Z,24.75
2018-04-22T09:20:09.542Z,24.50
2018-04-22T09:22:37.136Z,24.64
2018-04-22T09:25:04.680Z,24.78
2018-04-22T09:27:32.238Z,24.77
2018-04-22T09:30:00.102Z,24.79
2018-04-22T09:32:27.662Z,24.70
2018-04-22T09:34:55.213Z,24.67
2018-04-22T09:37:22.935Z,24.71
2018-04-22T09:39:50.505Z,24.63
2018-04-22T09:42:18.067Z,24.67
2018-04-22T09:44:45.646Z,24.69
2018-04-22T09:47:13.185Z,24.39
2018-04-22T09:49:40.743Z,24.24
2018-04-22T09:52:08.305Z,24.40
2018-04-22T09:54:35.854Z,24.12
2018-04-22T09:57:03.381Z,24.18
2018-04-22T09:59:31.064Z,24.09
2018-04-22T10:01:58.614Z,24.19
2018-04-22T10:04:28.975Z,24.09
2018-04-22T10:06:56.700Z,24.36
2018-04-22T10:09:24.271Z,24.64
2018-04-22T10:11:51.818Z,24.73
2018-04-22T10:14:19.400Z,24.82
2018-04-22T10:16:46.951Z,24.98
2018-04-22T10:19:14.532Z,25.08
2018-04-22T10:21:42.255Z,25.27
2018-04-22T10:24:09.799Z,25.26
2018-04-22T10:26:37.349Z,25.37
2018-04-22T10:29:04.955Z,25.50
2018-04-22T10:31:32.505Z,25.51
2018-04-22T10:34:00.098Z,25.63
2018-04-22T10:36:27.988Z,25.68
2018-04-22T10:38:55.556Z,25.90
2018-04-22T10:41:23.127Z,25.98
2018-04-22T10:43:50.829Z,25.86
2018-04-22T10:46:18.380Z,25.64
2018-04-22T10:48:45.924Z,25.67
2018-04-22T10:51:13.653Z,25.77
2018-04-22T10:53:41.219Z,25.78
2018-04-22T10:56:08.779Z,25.81
2018-04-22T10:58:36.475Z,25.88
2018-04-22T11:01:04.040Z,25.59
2018-04-22T11:03:31.597Z,25.62
2018-04-22T11:05:59.189Z,25.61
2018-04-22T11:08:26.751Z,25.73
2018-04-22T11:10:54.342Z,25.87
2018-04-22T11:13:22.080Z,25.94
2018-04-22T11:15:49.617Z,25.66
2018-04-22T11:18:17.188Z,25.52
2018-04-22T11:20:44.759Z,25.75
2018-04-22T11:23:12.299Z,25.79
2018-04-22T11:25:39.868Z,25.93
2018-04-22T11:28:07.619Z,25.86
2018-04-22T11:30:35.167Z,25.92
2018-04-22T11:33:02.704Z,25.77
2018-04-22T11:35:30.448Z,25.68
2018-04-22T11:37:57.993Z,25.78
2018-04-22T11:40:25.542Z,25.90
2018-04-22T11:42:53.123Z,26.07
2018-04-22T11:45:20.656Z,26.15
2018-04-22T11:47:48.533Z,26.31
2018-04-22T11:50:16.084Z,26.47
2018-04-22T11:52:43.638Z,26.68
2018-04-22T11:55:11.203Z,26.98
2018-04-22T11:57:38.749Z,26.94
2018-04-22T12:00:06.300Z,26.86
2018-04-22T12:02:34.243Z,27.07
2018-04-22T12:05:01.804Z,27.22
2018-04-22T12:07:29.358Z,26.91
2018-04-22T12:09:57.088Z,26.62
2018-04-22T12:12:24.644Z,26.67
2018-04-22T12:14:52.212Z,26.82
2018-04-22T12:17:19.948Z,26.80
2018-04-22T12:19:47.515Z,26.86
2018-04-22T12:22:15.085Z,26.90
2018-04-22T12:24:42.703Z,27.01
2018-04-22T12:27:10.264Z,26.96
2018-04-22T12:29:37.841Z,27.08
2018-04-22T12:32:05.439Z,27.34
2018-04-22T12:34:32.988Z,27.43
2018-04-22T12:37:00.532Z,27.34
2018-04-22T12:39:28.256Z,27.35
2018-04-22T12:41:55.804Z,27.37
2018-04-22T12:44:23.359Z,27.45
2018-04-22T12:46:50.957Z,27.40
2018-04-22T12:49:18.544Z,27.54
2018-04-22T12:51:46.087Z,27.48
2018-04-22T12:54:13.683Z,27.36
2018-04-22T12:56:41.216Z,27.34
2018-04-22T12:59:08.778Z,27.23
2018-04-22T13:01:36.375Z,27.29
2018-04-22T13:04:03.947Z,27.34
2018-04-22T13:06:31.491Z,27.33
2018-04-22T13:08:59.100Z,27.40
2018-04-22T13:11:26.644Z,27.35
2018-04-22T13:13:54.179Z,27.46
2018-04-22T13:16:22.028Z,27.54
2018-04-22T13:18:49.571Z,27.46
2018-04-22T13:21:17.143Z,27.55
2018-04-22T13:23:44.890Z,27.47
2018-04-22T13:26:12.428Z,27.52
2018-04-22T13:28:40.000Z,27.38
2018-04-22T13:31:07.740Z,27.10
2018-04-22T13:33:35.281Z,27.10
2018-04-22T13:36:02.830Z,27.06
2018-04-22T13:38:30.558Z,27.07
2018-04-22T13:40:58.140Z,27.07
2018-04-22T13:43:25.696Z,26.86
2018-04-22T13:45:53.267Z,26.84
2018-04-22T13:48:20.835Z,26.78
2018-04-22T13:50:48.371Z,26.81
2018-04-22T13:53:16.090Z,26.61
2018-04-22T13:55:43.644Z,26.36
2018-04-22T13:58:11.257Z,26.41
2018-04-22T14:00:38.838Z,26.33
2018-04-22T14:03:06.416Z,26.41
2018-04-22T14:05:33.984Z,26.52
2018-04-22T14:08:01.717Z,26.57
2018-04-22T14:10:29.279Z,26.47
2018-04-22T14:12:56.856Z,26.39
2018-04-22T14:15:24.517Z,26.33
2018-04-22T14:17:52.073Z,26.47
2018-04-22T14:20:19.626Z,26.57
2018-04-22T14:22:47.203Z,26.44
2018-04-22T14:25:14.778Z,26.46
2018-04-22T14:27:42.344Z,26.41
2018-04-22T14:30:10.053Z,26.34
2018-04-22T14:32:37.596Z,26.41
2018-04-22T14:35:05.142Z,26.42
2018-04-22T14:37:32.742Z,26.34
2018-04-22T14:40:00.284Z,26.30
2018-04-22T14:42:27.832Z,26.18
2018-04-22T14:45:07.033Z,26.10
2018-04-22T14:47:34.588Z,26.08
2018-04-22T14:56:44.231Z,25.85
2018-04-22T14:59:11.783Z,25.75
2018-04-22T15:01:39.418Z,25.82
2018-04-22T15:04:07.186Z,25.80
2018-04-22T15:06:34.733Z,25.79
2018-04-22T15:09:02.271Z,25.71
2018-04-22T15:11:30.144Z,25.59
2018-04-22T15:13:57.685Z,25.59
2018-04-22T15:16:25.240Z,25.56
2018-04-22T15:18:52.805Z,25.58
2018-04-22T15:21:20.352Z,25.63
2018-04-22T15:23:47.917Z,25.53
2018-04-22T15:26:15.635Z,25.44
2018-04-22T15:28:43.236Z,25.36
2018-04-22T15:31:10.841Z,25.31
2018-04-22T15:33:38.399Z,25.28
2018-04-22T15:36:05.977Z,25.29
2018-04-22T15:38:33.516Z,25.22
2018-04-22T15:41:01.085Z,25.14
2018-04-22T15:43:28.633Z,25.12
2018-04-22T15:45:56.192Z,25.10
2018-04-22T15:48:23.771Z,25.04
2018-04-22T15:50:51.321Z,24.91
2018-04-22T15:53:18.860Z,24.87
2018-04-22T15:55:46.445Z,24.83
2018-04-22T15:58:14.001Z,24.78
2018-04-22T16:00:41.531Z,24.70
2018-04-22T16:03:09.111Z,24.64
2018-04-22T16:05:36.645Z,24.59
2018-04-22T16:08:04.210Z,24.55
2018-04-22T16:10:31.779Z,24.44
2018-04-22T16:12:59.322Z,24.25
2018-04-22T16:15:26.870Z,24.19
2018-04-22T16:17:54.603Z,24.11
2018-04-22T16:20:22.155Z,24.01
2018-04-22T16:22:49.718Z,23.92
2018-04-22T16:25:17.601Z,23.84
2018-04-22T16:27:45.196Z,23.66
2018-04-22T16:30:12.764Z,23.64
2018-04-22T16:32:40.322Z,23.52
2018-04-22T16:35:07.878Z,23.40
2018-04-22T16:37:35.422Z,23.24
2018-04-22T16:40:03.020Z,23.16
2018-04-22T16:42:30.580Z,23.01
2018-04-22T16:44:58.120Z,22.88
2018-04-22T16:47:25.952Z,22.82
2018-04-22T16:49:53.587Z,22.67
2018-04-22T16:52:21.142Z,22.57
2018-04-22T16:54:48.826Z,22.47
2018-04-22T16:57:16.371Z,22.32
2018-04-22T16:59:43.952Z,22.24
2018-04-22T17:02:11.698Z,22.13
2018-04-22T17:04:39.246Z,22.05
2018-04-22T17:07:06.841Z,21.87
2018-04-22T17:09:34.475Z,21.75
2018-04-22T17:12:02.041Z,21.59
2018-04-22T17:14:29.592Z,21.40
2018-04-22T17:16:57.156Z,21.25
2018-04-22T17:19:24.706Z,21.10
2018-04-22T17:21:52.261Z,21.00
2018-04-22T17:24:19.856Z,20.84
2018-04-22T17:26:47.428Z,20.66
2018-04-22T17:29:14.972Z,20.53
2018-04-22T17:31:42.553Z,20.36
2018-04-22T17:34:10.196Z,20.20
2018-04-22T17:36:37.738Z,20.12
2018-04-22T17:39:06.268Z,20.02
2018-04-22T17:48:16.068Z,19.73
2018-04-22T17:50:43.640Z,19.57
2018-04-22T17:53:11.229Z,19.48
2018-04-22T17:55:38.961Z,19.47
2018-04-22T17:58:06.552Z,19.41
2018-04-22T18:00:34.223Z,19.39
2018-04-22T18:03:01.846Z,19.39
2018-04-22T18:05:29.439Z,19.36
2018-04-22T18:07:56.993Z,19.35
2018-04-22T18:10:24.594Z,19.31
2018-04-22T18:12:52.185Z,19.30
2018-04-22T18:15:19.782Z,19.32
2018-04-22T18:17:47.663Z,19.30
2018-04-22T18:20:15.241Z,19.24
2018-04-22T18:22:42.800Z,19.19
2018-04-22T18:25:10.501Z,19.11
2018-04-22T18:27:38.089Z,19.12
2018-04-22T18:30:05.744Z,19.19
2018-04-22T18:32:33.640Z,19.21
2018-04-22T18:35:01.203Z,19.25
2018-04-22T18:37:28.786Z,19.26
2018-04-22T18:39:56.735Z,19.28
2018-04-22T18:42:24.297Z,19.25
2018-04-22T18:44:51.874Z,19.20
2018-04-22T18:47:19.808Z,19.19
2018-04-22T18:49:47.368Z,19.15
2018-04-22T18:52:14.903Z,19.12
2018-04-22T18:54:42.494Z,19.07
2018-04-22T18:57:10.046Z,19.06
2018-04-22T18:59:37.680Z,18.99
2018-04-22T19:02:05.637Z,18.97
2018-04-22T19:04:33.209Z,18.93
2018-04-22T19:07:00.853Z,18.85
2018-04-22T19:09:28.821Z,18.82
2018-04-22T19:11:56.373Z,18.82
2018-04-22T19:14:23.923Z,18.78
2018-04-22T19:16:51.677Z,18.68
2018-04-22T19:19:19.249Z,18.65
2018-04-22T19:21:46.823Z,18.58
2018-04-22T19:24:14.708Z,18.59
2018-04-22T19:26:42.267Z,18.53
2018-04-22T19:29:09.817Z,18.55
2018-04-22T19:31:37.490Z,18.45
2018-04-22T19:34:05.043Z,18.46
2018-04-22T19:36:32.596Z,18.40
2018-04-22T19:39:00.341Z,18.40
2018-04-22T19:41:27.937Z,18.38
2018-04-22T19:43:55.528Z,18.35
2018-04-22T19:46:23.462Z,18.32
2018-04-22T19:48:51.015Z,18.27
2018-04-22T19:51:18.564Z,18.24
2018-04-22T19:53:46.176Z,18.18
2018-04-22T19:56:13.722Z,18.16
2018-04-22T19:58:41.278Z,18.10
2018-04-22T20:01:08.859Z,18.06
2018-04-22T20:03:36.417Z,18.08
2018-04-22T20:06:03.982Z,18.01
2018-04-22T20:08:31.658Z,17.96
2018-04-22T20:10:59.243Z,17.87
2018-04-22T20:13:26.782Z,17.85
2018-04-22T20:15:54.686Z,17.83
2018-04-22T20:18:22.237Z,17.77
2018-04-22T20:20:49.785Z,17.75
2018-04-22T20:23:17.351Z,17.73
2018-04-22T20:25:44.904Z,17.70
2018-04-22T20:28:12.463Z,17.62
2018-04-22T20:30:40.074Z,17.59
2018-04-22T20:33:07.625Z,17.57
2018-04-22T20:35:35.214Z,17.54
2018-04-22T20:38:03.090Z,17.48
2018-04-22T20:40:30.641Z,17.43
2018-04-22T20:42:58.179Z,17.40
2018-04-22T20:45:25.917Z,17.35
2018-04-22T20:47:53.466Z,17.32
2018-04-22T20:50:21.012Z,17.29
2018-04-22T20:52:48.630Z,17.29
2018-04-22T20:55:16.193Z,17.24
2018-04-22T20:57:43.750Z,17.20
2018-04-22T21:00:11.328Z,17.19
2018-04-22T21:02:38.883Z,17.16
2018-04-22T21:05:06.439Z,17.13
2018-04-22T21:07:34.161Z,17.12
2018-04-22T21:10:01.708Z,17.08
2018-04-22T21:12:29.267Z,17.02
2018-04-22T21:14:57.045Z,17.01
2018-04-22T21:17:24.582Z,16.97
2018-04-22T21:19:52.135Z,16.92
2018-04-22T21:22:19.700Z,16.92
2018-04-22T21:24:47.240Z,16.91
2018-04-22T21:27:14.787Z,16.89
2018-04-22T21:29:42.357Z,16.87
2018-04-22T21:32:09.894Z,16.89
2018-04-22T21:34:37.439Z,16.88
2018-04-22T21:37:05.011Z,16.89
2018-04-22T21:39:32.547Z,16.90
2018-04-22T21:42:00.088Z,16.88
2018-04-22T21:44:27.637Z,16.87
2018-04-22T21:46:55.211Z,16.95
2018-04-22T21:49:22.926Z,16.93
2018-04-22T21:51:50.472Z,16.96
2018-04-22T21:54:18.014Z,17.01
2018-04-22T21:56:45.575Z,16.98
2018-04-22T21:59:13.148Z,16.94
2018-04-22T22:01:40.691Z,16.82
2018-04-22T22:04:08.550Z,16.69
2018-04-22T22:06:36.106Z,16.58
2018-04-22T22:09:03.716Z,16.58
2018-04-22T22:11:31.527Z,16.43
2018-04-22T22:13:59.070Z,16.36
2018-04-22T22:16:26.655Z,16.22
2018-04-22T22:18:54.529Z,16.11
2018-04-22T22:21:22.097Z,16.02
2018-04-22T22:23:49.651Z,15.98
2018-04-22T22:26:17.225Z,15.84
2018-04-22T22:28:44.763Z,15.74
2018-04-22T22:31:12.298Z,15.63
2018-04-22T22:33:39.857Z,15.53
2018-04-22T22:36:07.391Z,15.48
2018-04-22T22:38:34.932Z,15.38
2018-04-22T22:41:02.671Z,15.27
2018-04-22T22:43:30.243Z,15.21
2018-04-22T22:45:57.791Z,15.15
2018-04-22T22:48:25.470Z,15.08
2018-04-22T22:50:53.010Z,15.04
2018-04-22T22:53:20.556Z,14.98
2018-04-22T22:55:48.425Z,14.94
2018-04-22T22:58:15.965Z,14.91
2018-04-22T23:00:43.506Z,14.89
2018-04-22T23:03:11.087Z,14.93
2018-04-22T23:05:38.637Z,15.05
2018-04-22T23:08:06.183Z,15.00
2018-04-22T23:10:33.769Z,15.05
2018-04-22T23:13:01.330Z,15.03
2018-04-22T23:15:28.859Z,14.97
2018-04-22T23:17:56.723Z,14.89
2018-04-22T23:20:24.276Z,14.83
2018-04-22T23:22:51.815Z,14.84
2018-04-22T23:25:19.400Z,14.78
2018-04-22T23:27:46.956Z,14.78
2018-04-22T23:30:14.497Z,14.70
2018-04-22T23:32:42.069Z,14.73
2018-04-22T23:35:09.607Z,14.70
2018-04-22T23:37:37.160Z,14.69
2018-04-22T23:40:04.824Z,14.66
2018-04-22T23:42:32.395Z,14.58
2018-04-22T23:44:59.943Z,14.52
2018-04-22T23:47:27.807Z,14.46
2018-04-22T23:49:55.349Z,14.37
2018-04-22T23:52:22.926Z,14.29
2018-04-22T23:54:50.603Z,14.25
2018-04-22T23:57:18.148Z,14.18
2018-04-22T23:59:46.257Z,14.09
